createdAt,value
2018-12-23T00:04:00.305Z,3.43
2018-12-23T00:09:04.646Z,3.00
2018-12-23T00:14:08.169Z,2.33
2018-12-23T00:19:11.477Z,2.50
2018-12-23T00:24:14.869Z,3.10
2018-12-23T00:29:18.151Z,3.13
2018-12-23T00:34:21.531Z,2.60
2018-12-23T00:39:25.332Z,2.67
2018-12-23T00:44:28.781Z,1.43
2018-12-23T00:49:32.030Z,1.53
2018-12-23T00:54:35.315Z,1.53
2018-12-23T00:59:38.583Z,0.93
2018-12-23T01:04:41.860Z,0.93
2018-12-23T01:09:45.092Z,1.83
2018-12-23T01:14:48.324Z,1.30
2018-12-23T01:19:51.573Z,1.20
2018-12-23T01:24:54.810Z,1.10
2018-12-23T01:29:57.998Z,2.30
2018-12-23T01:35:01.163Z,2.33
2018-12-23T01:40:05.552Z,1.57
2018-12-23T01:45:08.929Z,0.50
2018-12-23T01:50:12.277Z,0.50
2018-12-23T01:55:15.613Z,1.70
2018-12-23T02:00:19.114Z,1.27
2018-12-23T02:05:22.301Z,0.33
2018-12-23T02:10:25.555Z,1.30
2018-12-23T02:15:28.864Z,0.93
2018-12-23T02:20:32.017Z,1.30
2018-12-23T02:25:35.436Z,2.57
2018-12-23T02:30:38.686Z,1.03
2018-12-23T02:35:41.902Z,0.77
2018-12-23T02:40:45.179Z,1.20
2018-12-23T02:45:48.565Z,1.20
2018-12-23T02:50:52.008Z,1.20
2018-12-23T02:55:55.333Z,1.43
2018-12-23T03:00:58.547Z,2.20
2018-12-23T03:06:06.157Z,1.90
2018-12-23T03:11:06.966Z,2.53
2018-12-23T03:16:10.226Z,2.60
2018-12-23T03:21:13.518Z,1.47
2018-12-23T03:26:16.970Z,4.23
2018-12-23T03:31:20.141Z,1.90
2018-12-23T03:36:23.316Z,1.47
2018-12-23T03:41:26.734Z,3.17
2018-12-23T03:46:30.113Z,6.60
2018-12-23T03:51:33.486Z,4.73
2018-12-23T03:56:36.826Z,2.30
2018-12-23T04:01:40.041Z,2.20
2018-12-23T04:06:43.215Z,2.67
2018-12-23T04:11:46.454Z,2.10
2018-12-23T04:16:49.884Z,3.33
2018-12-23T04:21:53.066Z,2.27
2018-12-23T04:26:56.232Z,3.13
2018-12-23T04:31:59.468Z,2.77
2018-12-23T04:37:02.825Z,1.80
2018-12-23T04:42:06.105Z,2.00
2018-12-23T04:47:09.334Z,3.50
2018-12-23T04:52:12.503Z,3.13
2018-12-23T04:57:15.705Z,2.50
2018-12-23T05:02:18.889Z,2.13
2018-12-23T05:07:22.168Z,2.83
2018-12-23T05:12:25.349Z,3.60
2018-12-23T05:17:28.817Z,2.90
2018-12-23T05:22:32.321Z,2.03
2018-12-23T05:27:35.542Z,1.93
2018-12-23T05:32:38.761Z,1.37
2018-12-23T05:37:41.977Z,3.23
2018-12-23T05:42:45.155Z,2.37
2018-12-23T05:47:48.416Z,2.80
2018-12-23T05:52:51.594Z,3.23
2018-12-23T05:57:55.321Z,2.00
2018-12-23T06:02:58.504Z,3.90
2018-12-23T06:08:01.745Z,2.67
2018-12-23T06:13:05.093Z,5.27
2018-12-23T06:18:08.257Z,4.10
2018-12-23T06:23:11.489Z,5.57
2018-12-23T06:28:14.697Z,3.83
2018-12-23T06:33:17.873Z,5.43
2018-12-23T06:38:21.269Z,4.37
2018-12-23T06:43:24.524Z,3.90
2018-12-23T06:48:27.813Z,5.67
2018-12-23T06:53:31.225Z,7.70
2018-12-23T06:58:34.521Z,6.10
2018-12-23T07:03:37.775Z,4.60
2018-12-23T07:08:41.116Z,5.87
2018-12-23T07:13:44.489Z,5.03
2018-12-23T07:18:47.836Z,4.50
2018-12-23T07:23:51.189Z,4.43
2018-12-23T07:28:54.500Z,6.17
2018-12-23T07:33:57.661Z,4.77
2018-12-23T07:39:01.045Z,7.30
2018-12-23T07:44:04.479Z,7.20
2018-12-23T07:49:07.777Z,8.57
2018-12-23T07:54:11.143Z,5.73
2018-12-23T07:59:14.502Z,4.87
2018-12-23T08:04:17.799Z,5.07
2018-12-23T08:09:21.115Z,8.20
2018-12-23T08:14:24.464Z,5.63
2018-12-23T08:19:27.689Z,4.23
2018-12-23T08:24:30.846Z,3.00
2018-12-23T08:29:34.077Z,3.17
2018-12-23T08:34:37.244Z,4.20
2018-12-23T08:39:40.466Z,4.30
2018-12-23T08:44:43.621Z,3.40
2018-12-23T08:49:46.791Z,2.77
2018-12-23T08:54:49.934Z,4.70
2018-12-23T08:59:53.109Z,2.93
2018-12-23T09:04:56.337Z,2.43
2018-12-23T09:09:59.508Z,4.97
2018-12-23T09:15:02.800Z,4.07
2018-12-23T09:20:06.157Z,7.77
2018-12-23T09:25:09.477Z,5.37
2018-12-23T09:30:12.645Z,4.75
2018-12-23T09:35:15.955Z,4.30
2018-12-23T09:40:19.352Z,4.83
2018-12-23T09:45:22.558Z,3.87
2018-12-23T09:50:26.482Z,6.83
2018-12-23T09:55:29.756Z,6.03
2018-12-23T10:00:32.993Z,5.80
2018-12-23T10:05:36.314Z,3.83
2018-12-23T10:10:39.672Z,3.47
2018-12-23T10:15:43.044Z,2.85
2018-12-23T10:20:46.261Z,6.93
2018-12-23T10:25:52.734Z,4.10
2018-12-23T10:30:56.072Z,3.60
2018-12-23T10:35:59.292Z,2.63
2018-12-23T10:41:02.649Z,3.30
2018-12-23T10:46:05.862Z,5.27
2018-12-23T10:51:09.119Z,5.73
2018-12-23T10:56:12.344Z,2.83
2018-12-23T11:01:15.510Z,4.07
2018-12-23T11:06:18.764Z,3.43
2018-12-23T11:11:21.936Z,5.73
2018-12-23T11:16:25.166Z,6.80
2018-12-23T11:21:28.551Z,5.58
2018-12-23T11:26:31.752Z,1.57
2018-12-23T11:31:34.976Z,1.80
2018-12-23T11:36:38.226Z,3.73
2018-12-23T11:41:41.459Z,6.70
2018-12-23T11:46:44.753Z,6.83
2018-12-23T11:51:48.013Z,3.27
2018-12-23T11:56:51.281Z,3.50
2018-12-23T12:01:54.509Z,5.03
2018-12-23T12:06:57.713Z,4.03
2018-12-23T12:12:00.865Z,3.47
2018-12-23T12:17:04.140Z,5.87
2018-12-23T12:22:07.364Z,4.20
2018-12-23T12:27:10.505Z,4.40
2018-12-23T12:32:13.757Z,4.63
2018-12-23T12:37:16.931Z,3.20
2018-12-23T12:42:20.099Z,5.13
2018-12-23T12:47:23.281Z,6.65
2018-12-23T12:52:26.627Z,4.47
2018-12-23T12:57:29.900Z,5.27
2018-12-23T13:02:33.071Z,4.80
2018-12-23T13:07:36.274Z,3.57
2018-12-23T13:12:39.466Z,6.77
2018-12-23T13:17:42.648Z,4.47
2018-12-23T13:22:47.071Z,6.30
2018-12-23T13:27:50.282Z,9.43
2018-12-23T13:32:53.538Z,7.87
2018-12-23T13:37:57.164Z,9.83
2018-12-23T13:43:15.238Z,8.40
2018-12-23T13:49:31.280Z,6.30
2018-12-23T13:55:51.715Z,3.60
2018-12-23T14:01:32.267Z,8.00
2018-12-23T14:07:17.040Z,3.83
2018-12-23T14:12:21.410Z,9.87
2018-12-23T14:17:27.723Z,5.67
2018-12-23T14:22:31.846Z,6.50
2018-12-23T14:27:36.044Z,5.93
2018-12-23T14:32:40.346Z,5.40
2018-12-23T14:44:15.877Z,6.13
2018-12-23T14:49:20.028Z,3.77
2018-12-23T14:54:25.926Z,5.00
2018-12-23T14:59:30.202Z,5.63
2018-12-23T15:04:34.374Z,4.63
2018-12-23T15:09:38.650Z,8.40
2018-12-23T15:14:42.804Z,4.97
2018-12-23T15:19:46.983Z,6.53
2018-12-23T15:24:51.152Z,4.43
2018-12-23T15:29:55.274Z,5.13
2018-12-23T15:34:59.398Z,7.53
2018-12-23T15:40:03.680Z,8.53
2018-12-23T15:45:07.906Z,6.13
2018-12-23T15:50:12.069Z,7.03
2018-12-23T15:55:14.891Z,7.73
2018-12-23T16:00:19.126Z,6.40
2018-12-23T16:05:23.273Z,5.72
2018-12-23T16:10:27.431Z,8.97
2018-12-23T16:15:31.570Z,6.40
2018-12-23T16:20:36.679Z,8.50
2018-12-23T16:25:40.898Z,11.30
2018-12-23T16:30:45.032Z,8.07
2018-12-23T16:35:49.163Z,5.93
2018-12-23T16:40:53.301Z,7.50
2018-12-23T16:45:57.472Z,6.93
2018-12-23T16:51:01.620Z,7.57
2018-12-23T16:56:05.790Z,6.57
2018-12-23T17:01:10.031Z,6.30
2018-12-23T17:06:14.215Z,6.13
2018-12-23T17:11:18.455Z,5.03
2018-12-23T17:16:22.622Z,5.47
2018-12-23T17:21:26.789Z,5.63
2018-12-23T17:26:30.943Z,5.77
2018-12-23T17:31:35.119Z,5.50
2018-12-23T17:36:39.375Z,3.30
2018-12-23T17:41:43.580Z,2.83
2018-12-23T17:46:47.870Z,2.77
2018-12-23T17:51:52.041Z,7.20
2018-12-23T17:56:56.249Z,4.50
2018-12-23T18:02:03.017Z,5.40
2018-12-23T18:07:07.233Z,4.20
2018-12-23T18:12:11.416Z,3.07
2018-12-23T18:17:15.614Z,4.73
2018-12-23T18:22:20.465Z,3.03
2018-12-23T18:27:24.771Z,2.63
2018-12-23T18:32:29.055Z,6.30
2018-12-23T18:37:33.194Z,4.77
2018-12-23T18:42:37.339Z,2.80
2018-12-23T18:47:41.578Z,6.90
2018-12-23T18:52:45.755Z,2.70
2018-12-23T18:57:50.395Z,3.77
2018-12-23T19:02:56.982Z,5.07
2018-12-23T19:08:10.008Z,5.27
2018-12-23T19:13:59.537Z,5.47
2018-12-23T19:19:46.383Z,7.17
2018-12-23T19:25:40.517Z,9.43
2018-12-23T19:31:03.636Z,5.80
2018-12-23T19:36:46.141Z,5.83
2018-12-23T19:42:40.780Z,5.97
2018-12-23T19:48:40.505Z,6.40
2018-12-23T19:54:24.821Z,6.60
2018-12-23T20:00:05.559Z,8.13
2018-12-23T20:06:05.373Z,5.07
2018-12-23T20:12:02.781Z,4.90
2018-12-23T20:17:50.270Z,5.33
2018-12-23T20:23:20.687Z,5.93
2018-12-23T20:29:05.866Z,5.87
2018-12-23T20:34:54.744Z,5.10
2018-12-23T20:41:07.934Z,7.03
2018-12-23T20:46:40.909Z,6.93
2018-12-23T20:52:50.612Z,6.10
2018-12-23T20:58:45.232Z,5.95
2018-12-23T21:04:22.898Z,6.92
2018-12-23T21:10:32.996Z,7.83
2018-12-23T21:16:15.900Z,7.20
2018-12-23T21:21:55.968Z,7.83
2018-12-23T21:27:56.214Z,7.80
2018-12-23T21:33:36.599Z,7.30
2018-12-23T21:39:38.005Z,5.40
2018-12-23T21:45:13.709Z,5.60
2018-12-23T21:50:33.533Z,7.83
2018-12-23T21:56:30.219Z,6.60
2018-12-23T22:02:10.527Z,5.10
2018-12-23T22:08:02.058Z,4.30
2018-12-23T22:13:27.565Z,5.20
2018-12-23T22:18:34.239Z,3.57
2018-12-23T22:23:38.458Z,2.53
2018-12-23T22:28:42.624Z,2.00
2018-12-23T22:33:46.818Z,1.30
2018-12-23T22:38:51.001Z,4.33
2018-12-23T22:43:55.263Z,2.13
2018-12-23T22:48:59.473Z,1.57
2018-12-23T22:54:03.669Z,1.07
2018-12-23T22:59:08.229Z,2.00
2018-12-23T23:04:12.540Z,2.47
2018-12-23T23:09:16.837Z,0.90
2018-12-23T23:14:23.012Z,1.20
2018-12-23T23:19:30.165Z,2.77
2018-12-23T23:24:39.001Z,1.53
2018-12-23T23:29:43.358Z,1.23
2018-12-23T23:34:56.490Z,0.83
2018-12-23T23:40:02.148Z,1.43
2018-12-23T23:45:06.590Z,1.50
2018-12-23T23:50:10.921Z,1.20
2018-12-23T23:55:15.158Z,2.27
